Time;durP1;ratioP1;P1;durP2;ratioP2;P2;SDS_P1;SDS_P2;PMS_P1;PMS_P2;Temp;Humidity;BMP_temperature;BMP_pressure;BME280_temperature;BME280_humidity;BME280_pressure;Samples;Min_cycle;Max_cycle;Signal;HPM_P1;HPM_P2
2021/03/06 00:02:28;;;;;;;31.80;12.30;;;;;;;-3.03;76.50;99856.05;258647;1108;23187;-71
2021/03/06 00:07:30;;;;;;;22.60;10.53;;;;;;;-3.15;76.42;99862.66;259032;1109;23039;-71
2021/03/06 00:12:32;;;;;;;30.17;12.30;;;;;;;-3.20;76.53;99867.62;258951;1109;23076;-71
2021/03/06 00:17:35;;;;;;;25.57;11.50;;;;;;;-3.19;76.67;99879.72;258901;1108;23033;-71
2021/03/06 00:22:37;;;;;;;25.03;11.60;;;;;;;-3.23;76.56;99883.66;258698;1109;23031;-71
2021/03/06 00:27:39;;;;;;;25.40;11.90;;;;;;;-3.27;76.92;99878.77;258654;1109;23460;-71
2021/03/06 00:32:42;;;;;;;22.10;10.97;;;;;;;-3.25;77.69;99880.41;258699;1108;23070;-71
2021/03/06 00:37:45;;;;;;;19.07;10.07;;;;;;;-3.28;77.55;99881.56;258886;1109;22993;-71
2021/03/06 00:42:47;;;;;;;21.70;11.73;;;;;;;-3.27;77.79;99883.20;258685;1109;23015;-70
2021/03/06 00:47:50;;;;;;;24.00;10.65;;;;;;;-3.23;77.74;99878.42;258950;1108;23788;-71
2021/03/06 00:52:52;;;;;;;26.35;12.50;;;;;;;-3.22;77.47;99880.88;258978;1108;23081;-70
2021/03/06 00:57:56;;;;;;;25.70;12.00;;;;;;;-3.23;77.69;99886.28;259014;1108;23353;-71
2021/03/06 01:02:59;;;;;;;29.77;12.97;;;;;;;-3.24;77.80;99874.19;258930;1109;23027;-72
2021/03/06 01:08:05;;;;;;;20.77;10.93;;;;;;;-3.24;78.02;99882.05;258922;1109;23357;-71
2021/03/06 01:13:09;;;;;;;18.70;10.67;;;;;;;-3.26;78.17;99887.44;258974;1109;23033;-72
2021/03/06 01:18:11;;;;;;;15.53;8.10;;;;;;;-3.24;77.91;99887.30;259007;1109;23083;-71
2021/03/06 01:23:14;;;;;;;15.97;8.30;;;;;;;-3.23;78.23;99888.91;258670;1109;26566;-71
2021/03/06 01:28:16;;;;;;;18.60;9.13;;;;;;;-3.20;78.63;99880.73;259243;1109;23858;-72
2021/03/06 01:33:18;;;;;;;16.40;9.07;;;;;;;-3.21;78.05;99873.84;258907;1109;23209;-72
2021/03/06 01:38:21;;;;;;;17.83;9.53;;;;;;;-3.21;78.41;99881.70;258957;1109;23018;-71
2021/03/06 01:43:24;;;;;;;19.10;10.90;;;;;;;-3.21;78.58;99871.22;259031;1109;26440;-71
2021/03/06 01:48:26;;;;;;;18.53;9.80;;;;;;;-3.22;78.50;99873.00;258985;1108;23226;-71
2021/03/06 01:53:28;;;;;;;18.07;11.33;;;;;;;-3.25;78.63;99867.31;259124;1109;23214;-72
2021/03/06 01:58:30;;;;;;;32.07;13.57;;;;;;;-3.25;78.25;99875.17;259040;1109;23071;-71
2021/03/06 02:03:33;;;;;;;22.27;13.43;;;;;;;-3.31;78.88;99880.09;258889;1109;23273;-71
2021/03/06 02:08:36;;;;;;;18.60;10.27;;;;;;;-3.37;78.91;99880.79;258400;1109;23001;-72
2021/03/06 02:14:08;;;;;;;18.30;11.00;;;;;;;-3.40;78.79;99888.16;258968;1109;23036;-71
2021/03/06 02:19:16;;;;;;;19.63;11.97;;;;;;;-3.45;78.96;99884.25;258758;1109;23034;-71
2021/03/06 02:24:36;;;;;;;18.73;11.67;;;;;;;-3.47;78.95;99888.02;258908;1107;23017;-71
2021/03/06 02:29:59;;;;;;;20.15;9.95;;;;;;;-3.50;79.22;99888.36;259170;1108;23151;-70
2021/03/06 02:35:07;;;;;;;17.70;9.60;;;;;;;-3.53;79.18;99902.61;258794;1108;23029;-70
2021/03/06 02:40:12;;;;;;;23.93;12.00;;;;;;;-3.57;78.75;99903.13;258707;1109;22991;-71
2021/03/06 02:45:15;;;;;;;16.93;9.43;;;;;;;-3.59;79.58;99905.11;258699;1109;23142;-71
2021/03/06 02:50:17;;;;;;;20.67;12.00;;;;;;;-3.61;79.38;99918.34;259133;1109;23187;-72
2021/03/06 02:55:20;;;;;;;21.00;11.73;;;;;;;-3.65;79.56;99915.27;258997;1109;23006;-71
2021/03/06 03:00:22;;;;;;;21.63;10.63;;;;;;;-3.67;79.30;99919.83;258923;1108;23154;-71
2021/03/06 03:05:39;;;;;;;23.33;10.90;;;;;;;-3.68;79.45;99925.24;258899;1106;23239;-72
2021/03/06 03:10:45;;;;;;;27.67;10.53;;;;;;;-3.69;79.72;99931.48;258718;1109;26073;-71
2021/03/06 03:15:52;;;;;;;22.15;11.10;;;;;;;-3.71;79.51;99926.39;258944;1108;23188;-72
2021/03/06 03:20:58;;;;;;;23.90;12.27;;;;;;;-3.80;79.65;99925.59;258908;1109;26447;-71
2021/03/06 03:26:02;;;;;;;22.35;12.15;;;;;;;-3.79;79.83;99931.67;258954;1109;23039;-70
2021/03/06 03:31:05;;;;;;;21.60;10.90;;;;;;;-3.81;79.49;99936.23;258788;1107;23357;-71
2021/03/06 03:36:09;;;;;;;25.13;12.27;;;;;;;-3.85;79.49;99938.36;258929;1109;27368;-71
2021/03/06 03:41:12;;;;;;;20.93;10.83;;;;;;;-3.87;79.93;99944.77;258692;1109;23014;-71
2021/03/06 03:46:14;;;;;;;18.90;10.13;;;;;;;-3.88;79.81;99953.59;259101;1109;26478;-72
2021/03/06 03:51:17;;;;;;;15.27;8.53;;;;;;;-3.89;79.77;99951.95;259227;1109;23215;-71
2021/03/06 03:56:20;;;;;;;16.90;9.93;;;;;;;-3.89;80.00;99947.55;259019;1108;23091;-71
2021/03/06 04:01:22;;;;;;;20.80;11.37;;;;;;;-3.90;80.22;99951.14;258689;1108;23141;-71
2021/03/06 04:06:24;;;;;;;20.85;10.90;;;;;;;-3.95;79.67;99948.20;258978;1108;23232;-72
2021/03/06 04:11:27;;;;;;;22.03;11.50;;;;;;;-3.98;79.85;99946.72;258940;1108;23203;-71
2021/03/06 04:16:29;;;;;;;25.53;12.03;;;;;;;-3.99;79.72;99958.20;258600;1109;23043;-71
2021/03/06 04:21:32;;;;;;;21.10;11.65;;;;;;;-3.98;79.53;99959.81;259109;1107;23052;-71
2021/03/06 04:26:34;;;;;;;20.27;10.70;;;;;;;-4.00;79.84;99956.55;258987;1108;23076;-71
2021/03/06 04:31:36;;;;;;;20.60;9.97;;;;;;;-4.02;80.13;99971.59;259106;1109;23038;-71
2021/03/06 04:36:40;;;;;;;24.20;12.13;;;;;;;-4.00;80.24;99961.78;258768;1108;23163;-72
2021/03/06 04:41:43;;;;;;;24.20;11.77;;;;;;;-3.99;80.25;99976.52;258710;1109;23033;-72
2021/03/06 04:46:44;;;;;;;21.13;12.17;;;;;;;-3.98;80.52;99979.94;258810;1109;23044;-70
2021/03/06 04:51:47;;;;;;;23.33;12.07;;;;;;;-4.04;79.77;99980.58;259016;1109;23041;-71
2021/03/06 04:56:49;;;;;;;21.63;12.37;;;;;;;-4.14;79.89;99983.36;258761;1109;23025;-71
2021/03/06 05:01:51;;;;;;;29.87;13.80;;;;;;;-4.25;79.56;99975.83;259089;1108;23080;-71
2021/03/06 05:06:54;;;;;;;27.63;13.90;;;;;;;-4.38;79.44;99986.77;259020;1108;23024;-72
2021/03/06 05:11:58;;;;;;;20.13;10.67;;;;;;;-4.52;79.93;99988.22;259023;1109;23024;-72
2021/03/06 05:17:02;;;;;;;20.90;10.63;;;;;;;-4.68;79.25;99976.73;258739;1109;23052;-71
2021/03/06 05:22:05;;;;;;;20.33;10.83;;;;;;;-4.76;79.65;99978.52;258974;1109;23350;-71
2021/03/06 05:27:07;;;;;;;17.60;10.80;;;;;;;-4.83;80.03;99989.62;258644;1109;23020;-71
2021/03/06 05:32:09;;;;;;;20.60;11.50;;;;;;;-4.84;80.15;99993.20;258865;1109;23157;-71
2021/03/06 05:37:11;;;;;;;19.50;10.33;;;;;;;-4.84;80.12;99995.81;258644;1108;23046;-70
2021/03/06 05:42:13;;;;;;;25.10;12.20;;;;;;;-4.82;80.37;99993.85;258667;1108;23212;-71
2021/03/06 05:47:16;;;;;;;23.60;11.15;;;;;;;-4.79;79.94;99997.95;259027;1107;24777;-71
2021/03/06 05:52:20;;;;;;;22.43;11.80;;;;;;;-4.65;80.47;100014.83;258720;1107;23228;-71
2021/03/06 05:57:22;;;;;;;20.20;11.55;;;;;;;-4.51;81.09;100010.78;258939;1107;23008;-70
2021/03/06 06:02:25;;;;;;;28.03;12.50;;;;;;;-4.34;81.22;100019.48;259008;1109;23892;-70
2021/03/06 06:07:30;;;;;;;23.83;12.43;;;;;;;-4.16;80.97;100025.39;259024;1108;25248;-70
2021/03/06 06:12:32;;;;;;;21.37;10.73;;;;;;;-3.95;81.27;100031.97;259130;1109;26073;-71
2021/03/06 06:17:35;;;;;;;20.77;11.57;;;;;;;-3.78;80.54;100038.02;259109;1109;23270;-69
2021/03/06 06:22:37;;;;;;;18.43;10.60;;;;;;;-3.63;80.81;100044.24;259257;1108;23320;-71
2021/03/06 06:27:39;;;;;;;21.90;11.00;;;;;;;-3.51;80.71;100052.60;258807;1108;23213;-70
2021/03/06 06:32:43;;;;;;;14.53;8.47;;;;;;;-3.36;79.99;100059.78;258703;1109;23081;-70
2021/03/06 06:38:00;;;;;;;20.73;10.47;;;;;;;-3.28;79.92;100065.83;258970;1109;23037;-71
2021/03/06 06:43:23;;;;;;;20.13;10.20;;;;;;;-3.17;79.71;100066.48;259153;1109;27774;-71
2021/03/06 06:48:25;;;;;;;19.30;8.97;;;;;;;-3.00;79.72;100070.69;259371;1108;22961;-70
2021/03/06 06:53:28;;;;;;;16.03;8.60;;;;;;;-2.85;79.69;100068.20;259156;1109;23064;-71
2021/03/06 06:58:34;;;;;;;16.05;9.30;;;;;;;-2.63;79.60;100086.80;258721;1108;23156;-70
2021/03/06 07:03:36;;;;;;;17.80;9.27;;;;;;;-2.44;79.56;100094.27;259127;1108;23237;-70
2021/03/06 07:08:39;;;;;;;19.37;9.20;;;;;;;-2.22;79.58;100093.67;259263;1107;23229;-71
2021/03/06 07:13:41;;;;;;;18.70;9.00;;;;;;;-2.02;79.78;100091.45;258989;1109;23296;-71
2021/03/06 07:18:43;;;;;;;17.00;9.63;;;;;;;-1.82;78.70;100094.42;259069;1109;23354;-71
2021/03/06 07:23:45;;;;;;;18.40;10.53;;;;;;;-1.62;78.87;100092.98;259087;1108;23229;-71
2021/03/06 07:28:47;;;;;;;18.63;8.93;;;;;;;-1.40;78.76;100091.33;258921;1107;23193;-73
2021/03/06 07:33:54;;;;;;;21.63;10.43;;;;;;;-1.22;78.44;100092.80;259004;1108;23019;-72
2021/03/06 07:39:01;;;;;;;19.50;9.37;;;;;;;-1.04;77.94;100097.72;258775;1109;25973;-72
2021/03/06 07:44:06;;;;;;;15.17;7.23;;;;;;;-0.89;77.64;100098.55;258738;1109;23012;-73
2021/03/06 07:49:12;;;;;;;13.93;7.63;;;;;;;-0.74;77.14;100108.26;259399;1109;23157;-71
2021/03/06 07:54:16;;;;;;;18.30;8.63;;;;;;;-0.56;76.55;100108.73;259167;1109;23232;-72
2021/03/06 07:59:49;;;;;;;14.87;7.23;;;;;;;-0.39;76.58;100105.91;259673;1109;22997;-72
2021/03/06 08:04:52;;;;;;;15.43;7.53;;;;;;;-0.22;76.07;100102.05;259161;1108;23357;-72
2021/03/06 08:10:02;;;;;;;15.33;8.23;;;;;;;-0.08;76.08;100094.31;259069;1109;23100;-72
2021/03/06 08:15:29;;;;;;;15.70;7.00;;;;;;;0.11;75.96;100108.69;259596;1109;23023;-72
2021/03/06 08:20:32;;;;;;;16.67;7.90;;;;;;;0.35;75.56;100110.16;259438;1107;23018;-72
2021/03/06 08:25:35;;;;;;;14.17;6.87;;;;;;;0.50;74.72;100110.91;259711;1109;23097;-73
2021/03/06 08:30:37;;;;;;;10.50;5.03;;;;;;;0.66;74.90;100107.18;259416;1108;23024;-72
2021/03/06 08:35:39;;;;;;;13.43;5.90;;;;;;;0.81;74.67;100115.02;259967;1108;23229;-72
2021/03/06 08:40:42;;;;;;;13.33;5.87;;;;;;;0.94;73.42;100111.66;259550;1109;26045;-72
2021/03/06 08:45:44;;;;;;;14.60;6.25;;;;;;;1.05;73.32;100106.84;259565;1109;26514;-72
2021/03/06 08:50:47;;;;;;;11.57;5.70;;;;;;;1.14;72.65;100100.42;261608;1109;23613;-72
2021/03/06 08:55:54;;;;;;;9.83;5.13;;;;;;;1.28;72.03;100106.59;259266;1109;23018;-71
2021/03/06 09:00:57;;;;;;;12.93;5.90;;;;;;;1.41;71.72;100103.20;259260;1108;23229;-72
2021/03/06 09:06:01;;;;;;;15.50;5.53;;;;;;;1.63;72.38;100106.56;259562;1109;23280;-72
2021/03/06 09:11:04;;;;;;;7.80;3.73;;;;;;;1.86;72.03;100101.78;259280;1107;23094;-71
2021/03/06 09:16:06;;;;;;;9.87;3.90;;;;;;;2.01;70.56;100114.02;259292;1109;24169;-71
2021/03/06 09:21:23;;;;;;;6.07;2.80;;;;;;;2.05;69.44;100110.77;258895;1109;23091;-71
2021/03/06 09:26:26;;;;;;;5.80;3.50;;;;;;;2.16;69.09;100109.38;259121;1109;23017;-72
2021/03/06 09:31:33;;;;;;;4.67;3.20;;;;;;;2.28;68.62;100114.07;259356;1108;23027;-72
2021/03/06 09:36:35;;;;;;;8.70;4.43;;;;;;;2.38;67.90;100112.67;259692;1109;26063;-72
2021/03/06 09:41:41;;;;;;;8.07;4.27;;;;;;;2.51;67.76;100119.80;259544;1109;23083;-72
2021/03/06 09:46:45;;;;;;;6.07;3.33;;;;;;;2.71;67.00;100119.84;259535;1108;23011;-72
2021/03/06 09:51:51;;;;;;;6.60;3.23;;;;;;;2.93;66.50;100124.10;260184;1108;23017;-72
2021/03/06 09:57:01;;;;;;;9.77;3.63;;;;;;;3.21;64.86;100118.56;259631;1109;23178;-72
2021/03/06 10:02:05;;;;;;;7.43;3.77;;;;;;;3.49;64.94;100112.98;259630;1107;23080;-72
2021/03/06 10:07:10;;;;;;;7.17;2.90;;;;;;;3.72;63.67;100132.88;259597;1107;23029;-72
2021/03/06 10:12:15;;;;;;;4.87;2.30;;;;;;;3.69;60.42;100125.36;259407;1108;27310;-72
2021/03/06 10:17:24;;;;;;;4.33;2.40;;;;;;;3.60;60.27;100128.23;259257;1108;23070;-71
2021/03/06 10:22:43;;;;;;;2.67;1.33;;;;;;;3.63;58.80;100123.55;259143;1109;23094;-72
2021/03/06 10:27:46;;;;;;;3.93;1.80;;;;;;;3.52;57.56;100138.26;259214;1108;23457;-71
2021/03/06 10:32:55;;;;;;;3.27;1.50;;;;;;;3.41;56.34;100129.11;260029;1107;23022;-71
2021/03/06 10:37:58;;;;;;;2.57;1.20;;;;;;;3.52;53.17;100119.70;259658;1107;23076;-72
2021/03/06 10:43:00;;;;;;;2.07;1.03;;;;;;;3.51;52.03;100126.86;259847;1109;23076;-72
2021/03/06 10:48:03;;;;;;;3.57;1.10;;;;;;;3.68;53.78;100113.12;259396;1108;23356;-72
2021/03/06 10:53:14;;;;;;;3.07;0.93;;;;;;;3.86;50.01;100115.09;259624;1108;23039;-72
2021/03/06 10:58:16;;;;;;;;;;;;;;;3.69;52.35;100109.45;259588;1109;23037;-71
2021/03/06 11:03:18;;;;;;;2.80;1.70;;;;;;;3.41;51.18;100113.21;260225;1109;21495;-71
2021/03/06 11:08:21;;;;;;;2.00;1.37;;;;;;;3.23;51.55;100101.45;260107;1109;23159;-72
2021/03/06 11:13:46;;;;;;;2.43;1.17;;;;;;;3.31;51.69;100086.35;260041;1108;23225;-72
2021/03/06 11:18:48;;;;;;;2.60;1.63;;;;;;;3.73;51.02;100089.46;260891;1109;23041;-72
2021/03/06 11:23:50;;;;;;;4.50;2.30;;;;;;;3.80;52.17;100089.44;261312;1109;23040;-71
2021/03/06 11:28:53;;;;;;;4.43;2.10;;;;;;;3.79;51.21;100080.65;259410;1107;23033;-73
2021/03/06 11:33:55;;;;;;;3.77;2.00;;;;;;;3.86;51.74;100081.45;259740;1108;23157;-73
2021/03/06 11:38:58;;;;;;;5.43;1.90;;;;;;;3.79;52.40;100077.20;259368;1109;23029;-71
2021/03/06 11:44:00;;;;;;;5.47;2.40;;;;;;;3.76;52.20;100068.66;259205;1109;23000;-71
2021/03/06 11:49:03;;;;;;;4.60;2.50;;;;;;;3.62;53.08;100066.27;258976;1109;23010;-71
2021/03/06 11:54:06;;;;;;;3.05;1.80;;;;;;;3.41;52.09;100054.93;259437;1108;26399;-72
2021/03/06 11:59:08;;;;;;;3.60;2.03;;;;;;;3.20;52.66;100058.67;259695;1108;27345;-73
2021/03/06 12:04:10;;;;;;;5.57;2.83;;;;;;;3.18;53.57;100053.58;259800;1108;23773;-73
2021/03/06 12:09:12;;;;;;;4.25;2.50;;;;;;;3.39;53.38;100049.84;259887;1108;23432;-71
2021/03/06 12:14:14;;;;;;;5.40;2.70;;;;;;;3.65;53.77;100024.27;259930;1108;23146;-71
2021/03/06 12:19:16;;;;;;;2.93;1.93;;;;;;;3.70;52.81;100018.33;259415;1107;23023;-73
2021/03/06 12:24:19;;;;;;;4.00;2.30;;;;;;;3.73;54.12;100009.95;258956;1109;23229;-72
2021/03/06 12:29:21;;;;;;;4.70;2.45;;;;;;;3.87;53.41;100000.88;259095;1108;23024;-71
2021/03/06 12:34:24;;;;;;;3.63;2.40;;;;;;;4.04;52.69;99995.89;259145;1108;23079;-72
2021/03/06 12:39:26;;;;;;;4.25;2.35;;;;;;;4.01;52.08;100000.80;259247;1107;23069;-72
2021/03/06 12:44:28;;;;;;;3.80;1.70;;;;;;;3.79;51.25;99992.38;259101;1108;24411;-72
2021/03/06 12:49:30;;;;;;;3.73;2.13;;;;;;;3.75;50.70;100003.41;259072;1108;23046;-72
2021/03/06 12:54:32;;;;;;;4.03;2.10;;;;;;;3.93;51.97;99996.55;258989;1109;23034;-72
2021/03/06 12:59:34;;;;;;;2.75;2.00;;;;;;;4.32;52.27;99991.19;258808;1109;23077;-73
2021/03/06 13:04:37;;;;;;;4.77;2.07;;;;;;;4.69;50.47;99978.00;259084;1109;27468;-72
2021/03/06 13:09:39;;;;;;;6.33;2.17;;;;;;;5.04;48.95;99974.77;259028;1109;23036;-72
2021/03/06 13:14:41;;;;;;;2.93;1.47;;;;;;;5.04;49.18;99977.42;258915;1108;23410;-72
2021/03/06 13:19:46;;;;;;;2.67;1.57;;;;;;;5.00;49.59;99979.69;258755;1109;23122;-72
2021/03/06 13:24:48;;;;;;;3.30;1.60;;;;;;;5.03;48.83;99981.09;259129;1109;23261;-72
2021/03/06 13:29:51;;;;;;;3.17;2.33;;;;;;;4.94;48.27;99970.77;259375;1109;23420;-72
2021/03/06 13:34:53;;;;;;;3.17;1.80;;;;;;;4.82;48.62;99967.22;259131;1109;23191;-72
2021/03/06 13:39:55;;;;;;;3.55;1.80;;;;;;;4.89;48.63;99961.84;259322;1108;23080;-70
2021/03/06 13:44:57;;;;;;;3.40;1.90;;;;;;;4.98;48.16;99963.19;258895;1109;23025;-73
2021/03/06 13:49:59;;;;;;;2.70;1.67;;;;;;;5.03;48.45;99955.34;258772;1108;23034;-72
2021/03/06 13:55:04;;;;;;;5.13;1.63;;;;;;;5.23;47.40;99935.69;259169;1108;22987;-73
2021/03/06 14:00:08;;;;;;;3.15;1.65;;;;;;;5.31;47.56;99952.12;259058;1109;23178;-72
2021/03/06 14:05:11;;;;;;;2.30;1.15;;;;;;;5.27;47.12;99948.32;259216;1108;23038;-71
2021/03/06 14:10:16;;;;;;;2.00;1.20;;;;;;;5.18;47.08;99932.91;258776;1109;23083;-72
2021/03/06 14:15:18;;;;;;;2.27;1.53;;;;;;;5.06;46.90;99946.92;258719;1109;23229;-71
2021/03/06 14:20:21;;;;;;;3.20;1.50;;;;;;;4.85;46.89;99937.56;259200;1109;23011;-71
2021/03/06 14:25:23;;;;;;;1.83;1.10;;;;;;;4.69;47.55;99923.05;258971;1109;27663;-72
2021/03/06 14:30:28;;;;;;;2.47;1.47;;;;;;;4.57;47.02;99930.92;259017;1109;23089;-72
2021/03/06 14:35:30;;;;;;;3.93;1.43;;;;;;;4.53;47.04;99927.09;259024;1108;23033;-71
2021/03/06 14:40:33;;;;;;;2.35;1.40;;;;;;;4.37;47.50;99911.77;258993;1109;23226;-72
2021/03/06 14:45:36;;;;;;;2.87;1.17;;;;;;;4.35;47.40;99911.16;259173;1107;22998;-72
2021/03/06 14:50:40;;;;;;;2.50;1.60;;;;;;;4.41;46.99;99910.30;259075;1108;23223;-72
2021/03/06 14:55:42;;;;;;;2.13;1.40;;;;;;;4.33;47.09;99915.88;259111;1108;23024;-71
2021/03/06 15:00:44;;;;;;;2.53;1.37;;;;;;;4.17;46.78;99906.62;259138;1107;26427;-72
2021/03/06 15:05:47;;;;;;;3.27;1.50;;;;;;;4.07;46.34;99899.16;259091;1108;23026;-71
2021/03/06 15:10:50;;;;;;;2.47;1.40;;;;;;;4.05;47.82;99895.94;259006;1109;22976;-72
2021/03/06 15:15:52;;;;;;;2.43;1.60;;;;;;;4.02;47.58;99926.34;259078;1107;23225;-72
2021/03/06 15:20:55;;;;;;;4.23;2.10;;;;;;;3.87;48.05;99900.14;259278;1109;23235;-72
2021/03/06 15:26:17;;;;;;;2.73;1.70;;;;;;;3.75;47.97;99899.24;259090;1109;27341;-74
2021/03/06 15:31:19;;;;;;;3.75;2.00;;;;;;;3.63;48.00;99887.70;259113;1108;23208;-73
2021/03/06 15:36:21;;;;;;;2.67;1.83;;;;;;;3.48;47.91;99886.16;259028;1107;23174;-70
2021/03/06 15:41:25;;;;;;;7.27;2.40;;;;;;;3.40;48.68;99892.54;258997;1109;23079;-71
2021/03/06 15:46:28;;;;;;;6.77;2.63;;;;;;;3.32;49.07;99884.84;259209;1108;23086;-73
2021/03/06 15:51:31;;;;;;;5.00;3.10;;;;;;;3.22;48.81;99885.31;259069;1108;23147;-73
2021/03/06 15:56:33;;;;;;;3.53;2.10;;;;;;;3.10;48.87;99889.64;259116;1109;23027;-71
2021/03/06 16:01:38;;;;;;;8.20;2.67;;;;;;;2.97;49.41;99879.14;259030;1109;23208;-72
2021/03/06 16:06:41;;;;;;;5.27;2.27;;;;;;;2.83;49.44;99881.03;259178;1108;23135;-74
2021/03/06 16:11:43;;;;;;;5.27;2.07;;;;;;;2.68;49.97;99881.28;259106;1107;23144;-72
2021/03/06 16:16:46;;;;;;;4.17;2.37;;;;;;;2.48;49.98;99868.93;259081;1109;23020;-72
2021/03/06 16:21:48;;;;;;;3.77;2.20;;;;;;;2.33;50.82;99876.30;259178;1108;23068;-72
2021/03/06 16:26:50;;;;;;;8.73;3.67;;;;;;;2.12;50.88;99888.72;259031;1109;23204;-72
2021/03/06 16:31:52;;;;;;;11.57;4.23;;;;;;;1.94;51.24;99891.98;259046;1108;23162;-71
2021/03/06 16:36:54;;;;;;;9.77;4.90;;;;;;;1.78;51.27;99900.34;259228;1107;22988;-72
2021/03/06 16:41:56;;;;;;;6.43;3.40;;;;;;;1.61;51.50;99891.98;259087;1108;23223;-72
2021/03/06 16:46:58;;;;;;;5.50;2.57;;;;;;;1.43;51.85;99893.39;259201;1108;23090;-72
2021/03/06 16:52:01;;;;;;;8.57;3.67;;;;;;;1.27;52.77;99885.84;258884;1108;23232;-72
2021/03/06 16:57:04;;;;;;;8.83;3.20;;;;;;;1.11;52.78;99897.59;259116;1108;23079;-73
2021/03/06 17:02:07;;;;;;;21.20;9.60;;;;;;;1.01;52.81;99897.96;259262;1108;26093;-72
2021/03/06 17:07:09;;;;;;;7.03;3.57;;;;;;;0.90;53.47;99901.97;259313;1109;23081;-73
2021/03/06 17:12:12;;;;;;;6.80;3.50;;;;;;;0.78;53.91;99898.27;259171;1108;23229;-73
2021/03/06 17:17:15;;;;;;;10.10;4.97;;;;;;;0.63;53.61;99901.02;259143;1108;23008;-72
2021/03/06 17:22:18;;;;;;;12.17;5.43;;;;;;;0.51;54.95;99906.05;259234;1108;23070;-71
2021/03/06 17:27:21;;;;;;;14.80;6.17;;;;;;;0.40;55.00;99901.32;259104;1108;23077;-73
2021/03/06 17:32:23;;;;;;;7.00;3.90;;;;;;;0.32;55.27;99904.91;259131;1109;23382;-73
2021/03/06 17:37:25;;;;;;;11.53;4.93;;;;;;;0.26;54.48;99905.69;259298;1109;23027;-73
2021/03/06 17:42:27;;;;;;;12.67;6.20;;;;;;;0.20;55.39;99901.17;259141;1108;23029;-71
2021/03/06 17:47:29;;;;;;;12.60;6.03;;;;;;;0.16;54.83;99904.20;259094;1109;23030;-73
2021/03/06 17:52:32;;;;;;;15.80;8.40;;;;;;;0.14;55.74;99906.23;259058;1109;23064;-71
2021/03/06 17:57:35;;;;;;;14.93;6.40;;;;;;;0.11;55.31;99900.52;259084;1107;23190;-73
2021/03/06 18:02:38;;;;;;;14.17;6.67;;;;;;;0.07;55.42;99905.38;259082;1108;23224;-72
2021/03/06 18:07:41;;;;;;;15.15;7.05;;;;;;;0.01;56.24;99900.84;259055;1109;23031;-71
2021/03/06 18:12:43;;;;;;;12.77;6.07;;;;;;;-0.10;56.38;99896.94;259118;1109;23024;-72
2021/03/06 18:17:45;;;;;;;12.90;6.50;;;;;;;-0.22;57.29;99890.55;259081;1108;23077;-72
2021/03/06 18:22:54;;;;;;;15.80;7.77;;;;;;;-0.36;57.08;99897.52;259110;1108;23015;-72
2021/03/06 18:27:58;;;;;;;25.40;9.93;;;;;;;-0.47;57.21;99885.67;258920;1108;23020;-73
2021/03/06 18:33:01;;;;;;;35.97;14.13;;;;;;;-0.55;57.70;99886.59;259132;1108;23075;-73
2021/03/06 18:38:03;;;;;;;49.60;19.40;;;;;;;-0.59;58.00;99880.11;258998;1108;23256;-72
2021/03/06 18:43:05;;;;;;;52.53;20.87;;;;;;;-0.63;58.20;99872.75;259053;1108;23037;-73
2021/03/06 18:48:08;;;;;;;67.90;24.77;;;;;;;-0.66;58.67;99865.24;259141;1109;23045;-72
2021/03/06 18:53:29;;;;;;;66.40;24.07;;;;;;;-0.71;58.78;99868.45;259152;1109;23437;-73
2021/03/06 18:58:31;;;;;;;54.40;22.13;;;;;;;-0.76;58.97;99858.46;259057;1107;23072;-72
2021/03/06 19:03:33;;;;;;;57.67;22.73;;;;;;;-0.79;59.68;99847.52;258976;1108;22980;-73
2021/03/06 19:08:35;;;;;;;60.87;25.43;;;;;;;-0.84;59.72;99852.52;259154;1108;23081;-72
2021/03/06 19:13:38;;;;;;;79.00;29.40;;;;;;;-0.92;59.82;99846.38;259169;1107;23202;-73
2021/03/06 19:18:41;;;;;;;71.03;26.70;;;;;;;-0.99;59.65;99834.97;259059;1108;23054;-72
2021/03/06 19:23:43;;;;;;;61.90;25.87;;;;;;;-1.05;60.21;99838.33;259215;1109;23027;-72
2021/03/06 19:28:46;;;;;;;77.17;31.27;;;;;;;-1.11;60.77;99829.37;259148;1109;23011;-72
2021/03/06 19:33:48;;;;;;;79.33;33.77;;;;;;;-1.15;60.26;99833.37;259131;1107;23209;-71
2021/03/06 19:38:50;;;;;;;97.13;36.27;;;;;;;-1.18;60.71;99825.86;259010;1109;23035;-72
2021/03/06 19:43:52;;;;;;;108.10;41.37;;;;;;;-1.21;60.61;99826.23;259036;1109;22986;-71
2021/03/06 19:48:55;;;;;;;92.77;39.03;;;;;;;-1.29;60.93;99824.52;259006;1108;23043;-71
2021/03/06 19:53:57;;;;;;;93.30;36.17;;;;;;;-1.33;61.79;99832.97;258892;1108;22990;-72
2021/03/06 19:59:00;;;;;;;86.50;34.80;;;;;;;-1.29;61.88;99826.34;258972;1109;27285;-72
2021/03/06 20:04:03;;;;;;;94.60;35.87;;;;;;;-1.26;62.28;99828.59;259339;1109;23030;-72
2021/03/06 20:09:05;;;;;;;96.03;35.17;;;;;;;-1.28;62.48;99826.15;259038;1108;23024;-72
2021/03/06 20:14:08;;;;;;;89.63;35.37;;;;;;;-1.30;62.54;99833.42;259062;1109;23233;-72
2021/03/06 20:19:11;;;;;;;88.13;34.87;;;;;;;-1.24;63.37;99829.23;259065;1108;23227;-72
2021/03/06 20:24:16;;;;;;;84.90;34.93;;;;;;;-1.21;63.94;99837.55;259050;1108;23827;-71
2021/03/06 20:29:19;;;;;;;77.67;32.03;;;;;;;-1.17;63.87;99827.49;258963;1108;23151;-72
2021/03/06 20:34:22;;;;;;;156.30;69.47;;;;;;;-0.97;65.41;99826.89;259055;1108;23070;-72
2021/03/06 20:39:24;;;;;;;71.40;29.90;;;;;;;-1.02;64.15;99824.83;259004;1107;23083;-72
2021/03/06 20:44:27;;;;;;;58.17;25.87;;;;;;;-1.11;64.25;99824.11;258855;1108;23027;-73
2021/03/06 20:49:29;;;;;;;59.73;25.47;;;;;;;-1.19;64.91;99820.78;259100;1108;23023;-72
2021/03/06 20:54:31;;;;;;;61.50;25.43;;;;;;;-1.29;65.00;99823.71;259123;1108;23064;-72
2021/03/06 20:59:33;;;;;;;52.37;22.53;;;;;;;-1.36;64.65;99813.11;259030;1108;23015;-72
2021/03/06 21:04:36;;;;;;;51.77;23.13;;;;;;;-1.44;65.07;99813.22;259153;1109;23070;-72
2021/03/06 21:09:38;;;;;;;47.93;22.10;;;;;;;-1.51;64.88;99814.95;259119;1107;23141;-72
2021/03/06 21:14:40;;;;;;;49.70;21.80;;;;;;;-1.56;65.31;99818.14;259011;1109;23110;-72
2021/03/06 21:19:43;;;;;;;49.57;20.33;;;;;;;-1.61;65.47;99813.44;259165;1109;23359;-72
2021/03/06 21:24:45;;;;;;;41.90;17.80;;;;;;;-1.68;66.05;99799.38;259160;1108;27351;-72
2021/03/06 21:29:48;;;;;;;45.30;19.33;;;;;;;-1.73;66.10;99799.14;259125;1109;23499;-72
2021/03/06 21:34:50;;;;;;;39.25;16.85;;;;;;;-1.78;65.79;99790.98;259124;1108;23014;-72
2021/03/06 21:39:53;;;;;;;40.07;17.30;;;;;;;-1.81;66.14;99799.23;259134;1109;23360;-73
2021/03/06 21:44:55;;;;;;;38.97;16.73;;;;;;;-1.87;66.48;99790.27;259230;1108;23084;-72
2021/03/06 21:49:57;;;;;;;37.93;17.03;;;;;;;-1.91;66.21;99791.62;259121;1108;23245;-72
2021/03/06 21:54:59;;;;;;;36.97;16.03;;;;;;;-1.96;66.76;99802.69;259059;1108;23114;-72
2021/03/06 22:00:01;;;;;;;34.77;16.67;;;;;;;-1.97;67.19;99803.67;259074;1106;23080;-71
2021/03/06 22:05:13;;;;;;;29.63;14.03;;;;;;;-1.96;67.20;99801.84;259065;1108;23074;-72
2021/03/06 22:10:16;;;;;;;29.87;14.33;;;;;;;-2.00;66.72;99804.04;259152;1107;23186;-72
2021/03/06 22:15:21;;;;;;;30.20;13.80;;;;;;;-2.00;66.69;99805.83;259163;1108;23043;-72
2021/03/06 22:20:23;;;;;;;37.57;16.63;;;;;;;-2.07;67.20;99790.81;258911;1109;23167;-71
2021/03/06 22:25:25;;;;;;;32.20;15.73;;;;;;;-2.10;66.77;99790.34;259015;1108;23053;-72
2021/03/06 22:30:29;;;;;;;33.20;15.00;;;;;;;-2.14;67.62;99789.91;259067;1108;23069;-71
2021/03/06 22:35:31;;;;;;;36.97;15.47;;;;;;;-2.17;67.65;99782.39;258927;1109;23026;-72
2021/03/06 22:40:34;;;;;;;29.00;13.03;;;;;;;-2.20;67.54;99776.68;258922;1107;23044;-72
2021/03/06 22:45:36;;;;;;;30.50;12.97;;;;;;;-2.24;68.18;99782.30;259265;1109;23030;-71
2021/03/06 22:50:38;;;;;;;27.13;12.87;;;;;;;-2.24;69.13;99779.67;258898;1108;23030;-72
2021/03/06 22:55:43;;;;;;;27.53;11.43;;;;;;;-2.24;68.21;99766.55;259095;1107;23073;-71
2021/03/06 23:00:45;;;;;;;27.67;13.33;;;;;;;-2.26;68.70;99758.02;259066;1108;23039;-72
2021/03/06 23:05:51;;;;;;;30.20;13.55;;;;;;;-2.26;68.86;99755.39;258974;1109;23023;-72
2021/03/06 23:10:55;;;;;;;31.03;13.77;;;;;;;-2.29;69.36;99758.38;258698;1108;23087;-71
2021/03/06 23:16:06;;;;;;;25.17;13.43;;;;;;;-2.30;68.71;99756.75;259066;1108;23191;-72